Time;durP1;ratioP1;P1;durP2;ratioP2;P2;SDS_P1;SDS_P2;PMS_P1;PMS_P2;Temp;Humidity;BMP_temperature;BMP_pressure;BME280_temperature;BME280_humidity;BME280_pressure;Samples;Min_cycle;Max_cycle;Signal;HPM_P1;HPM_P2
2023/12/17 00:00:33;;;;;;;63.03;26.40;;;;;;;;;;2085429;28;20550;-75
2023/12/17 00:01:54;;;;;;;66.25;28.98;;;;;;;;;;2073992;28;20034;-75
2023/12/17 00:03:15;;;;;;;57.10;27.27;;;;;;;;;;2073319;28;20095;-75
2023/12/17 00:04:36;;;;;;;57.38;24.52;;;;;;;;;;2075537;28;20489;-75
2023/12/17 00:05:57;;;;;;;59.95;27.35;;;;;;;;;;2074331;28;20049;-74
2023/12/17 00:07:18;;;;;;;60.70;25.65;;;;;;;;;;2084321;28;20029;-75
2023/12/17 00:08:39;;;;;;;63.75;26.95;;;;;;;;;;2085926;28;20029;-75
2023/12/17 00:10:00;;;;;;;56.15;24.35;;;;;;;;;;2078607;28;20060;-75
2023/12/17 00:11:21;;;;;;;58.95;25.75;;;;;;;;;;2081189;28;20471;-75
2023/12/17 00:12:42;;;;;;;57.65;26.38;;;;;;;;;;2075542;28;20034;-75
2023/12/17 00:14:03;;;;;;;68.07;30.17;;;;;;;;;;2076105;28;20072;-75
2023/12/17 00:15:24;;;;;;;66.97;28.40;;;;;;;;;;2073134;28;20120;-74
2023/12/17 00:16:45;;;;;;;68.57;27.98;;;;;;;;;;2082809;28;20047;-75
2023/12/17 00:18:06;;;;;;;70.15;30.15;;;;;;;;;;2085429;28;20086;-75
2023/12/17 00:19:27;;;;;;;63.33;27.35;;;;;;;;;;2077993;28;20499;-75
2023/12/17 00:20:48;;;;;;;71.10;30.75;;;;;;;;;;2072922;28;20037;-75
2023/12/17 00:22:08;;;;;;;73.57;30.63;;;;;;;;;;2082431;28;20377;-78
2023/12/17 00:23:29;;;;;;;71.53;29.77;;;;;;;;;;2087822;28;20036;-75
2023/12/17 00:24:50;;;;;;;64.40;27.13;;;;;;;;;;2076223;28;20033;-75
2023/12/17 00:26:11;;;;;;;64.50;26.23;;;;;;;;;;2081676;28;20104;-75
2023/12/17 00:27:32;;;;;;;65.63;28.30;;;;;;;;;;2087697;28;20037;-75
2023/12/17 00:28:53;;;;;;;69.85;30.60;;;;;;;;;;2087237;28;20052;-75
2023/12/17 00:30:14;;;;;;;58.92;28.88;;;;;;;;;;2086739;28;20439;-75
2023/12/17 00:31:35;;;;;;;65.32;27.33;;;;;;;;;;2087311;28;20025;-75
2023/12/17 00:32:56;;;;;;;68.03;26.10;;;;;;;;;;2087350;28;20033;-75
2023/12/17 00:34:16;;;;;;;64.63;26.30;;;;;;;;;;2089425;28;20084;-75
2023/12/17 00:35:37;;;;;;;57.45;25.52;;;;;;;;;;2078707;28;20029;-76
2023/12/17 00:36:58;;;;;;;55.00;24.30;;;;;;;;;;2083214;28;20047;-77
2023/12/17 00:38:19;;;;;;;58.67;25.05;;;;;;;;;;2078587;28;20038;-77
2023/12/17 00:39:40;;;;;;;52.92;24.60;;;;;;;;;;2074311;28;20076;-76
2023/12/17 00:41:01;;;;;;;58.65;24.60;;;;;;;;;;2083928;28;20021;-76
2023/12/17 00:42:22;;;;;;;61.22;26.48;;;;;;;;;;2078532;28;20119;-75
2023/12/17 00:43:43;;;;;;;49.78;22.35;;;;;;;;;;2078331;28;20041;-75
2023/12/17 00:45:04;;;;;;;59.63;24.40;;;;;;;;;;2073655;28;20037;-75
2023/12/17 00:46:25;;;;;;;55.17;25.20;;;;;;;;;;2084424;28;20037;-75
2023/12/17 00:47:46;;;;;;;51.80;24.85;;;;;;;;;;2075408;28;20033;-76
2023/12/17 00:49:07;;;;;;;54.13;23.50;;;;;;;;;;2083524;28;20110;-76
2023/12/17 00:50:28;;;;;;;58.17;24.42;;;;;;;;;;2077656;28;20457;-76
2023/12/17 00:51:49;;;;;;;51.05;23.58;;;;;;;;;;2074436;28;20096;-76
2023/12/17 00:53:10;;;;;;;50.83;23.30;;;;;;;;;;2075535;28;20045;-76
2023/12/17 00:54:31;;;;;;;48.88;23.25;;;;;;;;;;2075120;28;20064;-75
2023/12/17 00:55:52;;;;;;;50.47;22.33;;;;;;;;;;2084623;28;20036;-76
2023/12/17 00:57:13;;;;;;;52.15;24.30;;;;;;;;;;2086556;28;20033;-76
2023/12/17 00:58:33;;;;;;;51.60;24.85;;;;;;;;;;2077245;28;20026;-75
2023/12/17 00:59:54;;;;;;;55.03;24.13;;;;;;;;;;2074164;28;20417;-75
2023/12/17 01:01:15;;;;;;;49.15;22.58;;;;;;;;;;2076028;28;20029;-76
2023/12/17 01:02:36;;;;;;;52.45;23.52;;;;;;;;;;2073636;28;20041;-76
2023/12/17 01:03:57;;;;;;;46.00;20.95;;;;;;;;;;2077503;28;20041;-74
2023/12/17 01:05:18;;;;;;;50.97;22.15;;;;;;;;;;2077387;28;20029;-74
2023/12/17 01:06:39;;;;;;;47.33;22.52;;;;;;;;;;2074632;28;20029;-77
2023/12/17 01:08:00;;;;;;;51.47;22.85;;;;;;;;;;2074887;28;20075;-76
2023/12/17 01:09:21;;;;;;;51.58;23.40;;;;;;;;;;2074398;28;20103;-77
2023/12/17 01:10:43;;;;;;;44.88;21.25;;;;;;;;;;2075430;28;20394;-76
2023/12/17 01:12:04;;;;;;;53.08;22.02;;;;;;;;;;2075637;28;20041;-76
2023/12/17 01:13:25;;;;;;;58.88;28.92;;;;;;;;;;2082825;28;20037;-77
2023/12/17 01:14:46;;;;;;;47.83;22.02;;;;;;;;;;2079035;28;20030;-75
2023/12/17 01:16:07;;;;;;;53.95;22.85;;;;;;;;;;2078263;28;20120;-75
2023/12/17 01:17:28;;;;;;;54.58;25.02;;;;;;;;;;2084293;28;20060;-75
2023/12/17 01:18:49;;;;;;;48.22;22.35;;;;;;;;;;2077840;28;20030;-75
2023/12/17 01:20:10;;;;;;;50.35;23.92;;;;;;;;;;2078007;28;20030;-76
2023/12/17 01:21:31;;;;;;;44.63;21.42;;;;;;;;;;2076733;28;20034;-76
2023/12/17 01:22:51;;;;;;;44.85;22.88;;;;;;;;;;2075080;28;20095;-75
2023/12/17 01:24:12;;;;;;;52.85;22.13;;;;;;;;;;2080715;28;20537;-76
2023/12/17 01:25:34;;;;;;;44.47;21.60;;;;;;;;;;2085376;28;20044;-75
2023/12/17 01:26:55;;;;;;;54.25;24.05;;;;;;;;;;2076642;28;20049;-75
2023/12/17 01:28:16;;;;;;;48.88;22.95;;;;;;;;;;2083709;28;20447;-74
2023/12/17 01:29:36;;;;;;;46.65;21.83;;;;;;;;;;2087850;28;20048;-76
2023/12/17 01:30:57;;;;;;;51.35;22.95;;;;;;;;;;2077260;28;20033;-76
2023/12/17 01:32:18;;;;;;;46.75;21.05;;;;;;;;;;2076297;28;20595;-75
2023/12/17 01:33:39;;;;;;;45.08;22.08;;;;;;;;;;2077518;28;20041;-75
2023/12/17 01:35:00;;;;;;;55.80;23.60;;;;;;;;;;2079761;28;20037;-76
2023/12/17 01:36:21;;;;;;;48.50;22.13;;;;;;;;;;2080947;28;20032;-76
2023/12/17 01:37:42;;;;;;;50.97;22.63;;;;;;;;;;2088384;28;20444;-76
2023/12/17 01:39:03;;;;;;;51.30;22.52;;;;;;;;;;2074689;28;20037;-75
2023/12/17 01:40:24;;;;;;;45.63;20.25;;;;;;;;;;2078715;28;20105;-75
2023/12/17 01:41:45;;;;;;;43.90;21.63;;;;;;;;;;2077386;28;20389;-75
2023/12/17 01:43:09;;;;;;;45.85;23.23;;;;;;;;;;2086126;28;20383;-76
2023/12/17 01:44:30;;;;;;;42.90;20.63;;;;;;;;;;2096273;28;20044;-75
2023/12/17 01:45:51;;;;;;;40.28;19.73;;;;;;;;;;2082347;28;20037;-74
2023/12/17 01:47:12;;;;;;;44.65;19.80;;;;;;;;;;2083056;28;20037;-76
2023/12/17 01:48:34;;;;;;;40.78;19.75;;;;;;;;;;2085304;28;20389;-75
2023/12/17 01:49:55;;;;;;;43.97;19.45;;;;;;;;;;2081931;28;20100;-76
2023/12/17 01:51:16;;;;;;;35.85;17.80;;;;;;;;;;2086875;28;20029;-75
2023/12/17 01:52:38;;;;;;;39.25;19.70;;;;;;;;;;2079152;28;20137;-76
2023/12/17 01:54:02;;;;;;;43.97;19.88;;;;;;;;;;2085209;28;20041;-75
2023/12/17 01:55:23;;;;;;;38.13;18.27;;;;;;;;;;2080825;28;20037;-76
2023/12/17 01:56:44;;;;;;;38.40;18.38;;;;;;;;;;2085975;28;20021;-76
2023/12/17 01:58:06;;;;;;;40.83;18.70;;;;;;;;;;2081559;28;20429;-75
2023/12/17 01:59:27;;;;;;;;;;;;;;;;;;2080979;28;20365;-75
2023/12/17 02:00:48;;;;;;;39.97;19.70;;;;;;;;;;2087404;28;19917;-75
2023/12/17 02:02:10;;;;;;;39.88;18.17;;;;;;;;;;2086045;28;20377;-74
2023/12/17 02:03:31;;;;;;;42.50;18.63;;;;;;;;;;2086420;28;20049;-74
2023/12/17 02:04:52;;;;;;;42.42;19.73;;;;;;;;;;2085453;28;20041;-76
2023/12/17 02:06:13;;;;;;;43.70;21.58;;;;;;;;;;2076051;28;20059;-75
2023/12/17 02:07:34;;;;;;;51.75;22.00;;;;;;;;;;2074551;28;20037;-75
2023/12/17 02:08:55;;;;;;;43.65;20.50;;;;;;;;;;2083146;28;20045;-74
2023/12/17 02:10:16;;;;;;;53.85;21.00;;;;;;;;;;2085925;28;20095;-76
2023/12/17 02:11:37;;;;;;;49.55;21.40;;;;;;;;;;2076455;28;20029;-75
2023/12/17 02:12:58;;;;;;;52.38;21.20;;;;;;;;;;2081422;28;20104;-76
2023/12/17 02:14:19;;;;;;;51.60;21.55;;;;;;;;;;2084811;28;20029;-75
2023/12/17 02:15:40;;;;;;;46.67;21.98;;;;;;;;;;2085932;28;20079;-75
2023/12/17 02:17:01;;;;;;;53.40;24.42;;;;;;;;;;2085971;28;20099;-76
2023/12/17 02:18:22;;;;;;;45.13;22.75;;;;;;;;;;2084723;28;20094;-75
2023/12/17 02:19:43;;;;;;;50.33;20.17;;;;;;;;;;2078013;28;20083;-76
2023/12/17 02:21:04;;;;;;;45.80;21.25;;;;;;;;;;2073191;28;20096;-74
2023/12/17 02:22:25;;;;;;;43.00;19.63;;;;;;;;;;2078502;28;20037;-76
2023/12/17 02:23:46;;;;;;;44.70;19.77;;;;;;;;;;2077758;28;20064;-75
2023/12/17 02:25:08;;;;;;;46.17;21.10;;;;;;;;;;2074622;28;20481;-75
2023/12/17 02:26:28;;;;;;;37.08;17.92;;;;;;;;;;2078149;28;20049;-75
2023/12/17 02:27:49;;;;;;;42.85;20.23;;;;;;;;;;2075851;28;20450;-76
2023/12/17 02:29:10;;;;;;;47.53;20.30;;;;;;;;;;2084696;28;20067;-75
2023/12/17 02:30:31;;;;;;;46.72;19.23;;;;;;;;;;2079316;28;20034;-76
2023/12/17 02:31:52;;;;;;;44.08;19.98;;;;;;;;;;2084559;28;20433;-75
2023/12/17 02:33:13;;;;;;;41.50;18.45;;;;;;;;;;2076922;28;20037;-75
2023/12/17 02:34:34;;;;;;;38.05;18.60;;;;;;;;;;2084114;28;20071;-75
2023/12/17 02:35:55;;;;;;;36.22;17.70;;;;;;;;;;2086911;28;20086;-75
2023/12/17 02:37:16;;;;;;;39.25;17.85;;;;;;;;;;2085983;28;20029;-74
2023/12/17 02:38:37;;;;;;;39.60;19.10;;;;;;;;;;2078765;28;20042;-75
2023/12/17 02:39:58;;;;;;;39.22;16.67;;;;;;;;;;2084246;28;20029;-75
2023/12/17 02:41:20;;;;;;;35.60;17.65;;;;;;;;;;2078037;28;20346;-75
2023/12/17 02:42:41;;;;;;;38.50;17.58;;;;;;;;;;2081411;28;20033;-77
2023/12/17 02:44:02;;;;;;;42.95;19.17;;;;;;;;;;2086437;28;20033;-76
2023/12/17 02:45:23;;;;;;;33.83;17.42;;;;;;;;;;2085885;28;20094;-75
2023/12/17 02:46:44;;;;;;;36.88;17.38;;;;;;;;;;2078954;28;20037;-75
2023/12/17 02:48:05;;;;;;;32.65;16.67;;;;;;;;;;2082568;28;20017;-75
2023/12/17 02:49:26;;;;;;;30.35;16.20;;;;;;;;;;2076568;28;20042;-76
2023/12/17 02:50:47;;;;;;;34.05;16.17;;;;;;;;;;2083971;28;20021;-75
2023/12/17 02:52:08;;;;;;;30.58;16.48;;;;;;;;;;2088705;28;20489;-75
2023/12/17 02:53:29;;;;;;;28.90;14.68;;;;;;;;;;2073278;28;20107;-75
2023/12/17 02:54:50;;;;;;;30.17;14.35;;;;;;;;;;2073011;28;20068;-75
2023/12/17 02:56:11;;;;;;;29.38;13.77;;;;;;;;;;2077612;28;20106;-75
2023/12/17 02:57:32;;;;;;;25.85;13.02;;;;;;;;;;2076331;28;20214;-76
2023/12/17 02:58:53;;;;;;;26.95;12.90;;;;;;;;;;2081996;28;20512;-75
2023/12/17 03:00:14;;;;;;;28.40;13.40;;;;;;;;;;2078439;28;20034;-75
2023/12/17 03:01:35;;;;;;;28.80;12.65;;;;;;;;;;2076914;28;20033;-75
2023/12/17 03:02:56;;;;;;;28.38;14.15;;;;;;;;;;2085894;28;20104;-75
2023/12/17 03:04:17;;;;;;;25.50;12.45;;;;;;;;;;2079468;28;20045;-74
2023/12/17 03:05:38;;;;;;;27.35;14.15;;;;;;;;;;2070161;28;20025;-75
2023/12/17 03:06:59;;;;;;;32.10;14.65;;;;;;;;;;2083821;28;20539;-75
2023/12/17 03:08:20;;;;;;;27.05;13.95;;;;;;;;;;2087408;28;20033;-75
2023/12/17 03:09:41;;;;;;;29.77;13.75;;;;;;;;;;2085323;28;20037;-75
2023/12/17 03:11:02;;;;;;;33.08;15.48;;;;;;;;;;2085486;28;20509;-75
2023/12/17 03:12:23;;;;;;;32.40;13.80;;;;;;;;;;2077533;28;20050;-75
2023/12/17 03:13:44;;;;;;;27.13;13.20;;;;;;;;;;2086635;28;20036;-76
2023/12/17 03:15:06;;;;;;;32.55;14.70;;;;;;;;;;2077253;28;20442;-75
2023/12/17 03:16:27;;;;;;;33.28;14.88;;;;;;;;;;2079187;28;20033;-75
2023/12/17 03:17:47;;;;;;;31.02;14.25;;;;;;;;;;2085590;28;20037;-74
2023/12/17 03:19:08;;;;;;;31.55;17.02;;;;;;;;;;2075939;28;20060;-76
2023/12/17 03:20:29;;;;;;;33.60;16.13;;;;;;;;;;2077361;28;20033;-75
2023/12/17 03:21:50;;;;;;;34.42;16.70;;;;;;;;;;2073163;28;20037;-74
2023/12/17 03:23:11;;;;;;;34.53;15.82;;;;;;;;;;2082907;28;20037;-75
2023/12/17 03:24:32;;;;;;;39.08;17.40;;;;;;;;;;2081732;28;20421;-75
2023/12/17 03:25:53;;;;;;;34.85;16.98;;;;;;;;;;2079331;28;20072;-74
2023/12/17 03:27:14;;;;;;;42.17;17.42;;;;;;;;;;2073753;28;20084;-75
2023/12/17 03:28:35;;;;;;;43.22;18.83;;;;;;;;;;2081150;28;20033;-75
2023/12/17 03:29:55;;;;;;;39.08;15.93;;;;;;;;;;2087070;28;20029;-75
2023/12/17 03:31:16;;;;;;;45.85;19.48;;;;;;;;;;2075367;28;20091;-75
2023/12/17 03:32:37;;;;;;;38.80;17.13;;;;;;;;;;2074716;28;20484;-75
2023/12/17 03:33:59;;;;;;;46.67;21.30;;;;;;;;;;2077948;28;20057;-75
2023/12/17 03:35:20;;;;;;;44.13;19.48;;;;;;;;;;2077766;28;20060;-75
2023/12/17 03:36:41;;;;;;;44.45;21.13;;;;;;;;;;2068139;28;20187;-76
2023/12/17 03:38:03;;;;;;;39.20;18.00;;;;;;;;;;2082926;28;20053;-75
2023/12/17 03:39:24;;;;;;;43.83;19.33;;;;;;;;;;2076902;28;20048;-75
2023/12/17 03:40:45;;;;;;;46.88;20.02;;;;;;;;;;2072398;28;20393;-76
2023/12/17 03:42:05;;;;;;;43.08;20.17;;;;;;;;;;2082866;28;20044;-75
2023/12/17 03:43:26;;;;;;;50.58;21.40;;;;;;;;;;2085230;28;20041;-76
2023/12/17 03:44:47;;;;;;;55.33;20.83;;;;;;;;;;2087704;28;20504;-75
2023/12/17 03:46:08;;;;;;;52.00;22.77;;;;;;;;;;2083562;28;20032;-75
2023/12/17 03:47:29;;;;;;;44.85;19.63;;;;;;;;;;2080159;28;20095;-75
2023/12/17 03:48:50;;;;;;;51.58;21.83;;;;;;;;;;2075381;28;20041;-75
2023/12/17 03:50:11;;;;;;;47.40;19.80;;;;;;;;;;2083754;28;20029;-75
2023/12/17 03:51:33;;;;;;;48.90;21.67;;;;;;;;;;2085840;28;20036;-75
2023/12/17 03:52:54;;;;;;;53.83;20.95;;;;;;;;;;2086365;28;20505;-77
2023/12/17 03:54:15;;;;;;;53.78;21.48;;;;;;;;;;2079000;28;20044;-75
2023/12/17 03:55:37;;;;;;;51.97;22.48;;;;;;;;;;2084973;28;20033;-75
2023/12/17 03:56:58;;;;;;;61.63;24.67;;;;;;;;;;2080708;28;20485;-75
2023/12/17 03:58:18;;;;;;;54.03;21.40;;;;;;;;;;2080405;28;20449;-74
2023/12/17 03:59:39;;;;;;;45.28;19.92;;;;;;;;;;2082876;28;20021;-76
2023/12/17 04:01:01;;;;;;;65.22;26.15;;;;;;;;;;2087278;28;20025;-76
2023/12/17 04:02:22;;;;;;;60.22;23.98;;;;;;;;;;2080272;28;20030;-75
2023/12/17 04:03:42;;;;;;;50.60;21.63;;;;;;;;;;2086459;28;20044;-75
2023/12/17 04:05:04;;;;;;;48.78;20.92;;;;;;;;;;2077775;28;20041;-77
2023/12/17 04:06:24;;;;;;;51.95;21.77;;;;;;;;;;2074853;28;20422;-75
2023/12/17 04:07:45;;;;;;;46.88;20.35;;;;;;;;;;2083688;28;20087;-75
2023/12/17 04:09:06;;;;;;;53.70;21.85;;;;;;;;;;2088377;28;20029;-75
2023/12/17 04:10:27;;;;;;;49.10;19.60;;;;;;;;;;2087714;28;20342;-75
2023/12/17 04:11:48;;;;;;;50.55;20.27;;;;;;;;;;2089322;28;20032;-75
2023/12/17 04:13:09;;;;;;;54.17;21.77;;;;;;;;;;2083876;28;20034;-75
2023/12/17 04:14:31;;;;;;;48.67;21.33;;;;;;;;;;2083492;28;20040;-75
2023/12/17 04:15:52;;;;;;;47.25;19.67;;;;;;;;;;2086330;28;20021;-76
2023/12/17 04:17:13;;;;;;;46.70;21.42;;;;;;;;;;2076265;28;20034;-76
2023/12/17 04:18:34;;;;;;;48.08;20.70;;;;;;;;;;2084968;28;20033;-77
2023/12/17 04:19:55;;;;;;;41.80;19.35;;;;;;;;;;2083810;28;20021;-76
2023/12/17 04:21:16;;;;;;;39.72;18.70;;;;;;;;;;2078041;28;20099;-76
2023/12/17 04:22:37;;;;;;;42.42;19.08;;;;;;;;;;2084305;28;20029;-76
2023/12/17 04:23:58;;;;;;;46.95;19.75;;;;;;;;;;2089199;28;20334;-75
2023/12/17 04:25:18;;;;;;;41.90;18.83;;;;;;;;;;2075858;28;20091;-77
2023/12/17 04:26:39;;;;;;;41.17;16.83;;;;;;;;;;2084879;28;20143;-76
2023/12/17 04:28:00;;;;;;;40.15;17.88;;;;;;;;;;2079563;28;20485;-76
2023/12/17 04:29:21;;;;;;;42.17;19.17;;;;;;;;;;2076590;28;20096;-76
2023/12/17 04:30:42;;;;;;;40.88;17.23;;;;;;;;;;2077344;28;20033;-76
2023/12/17 04:32:03;;;;;;;34.28;16.88;;;;;;;;;;2079465;28;20112;-76
2023/12/17 04:33:24;;;;;;;42.53;18.42;;;;;;;;;;2080885;28;20048;-75
2023/12/17 04:34:45;;;;;;;35.35;17.10;;;;;;;;;;2087599;28;20044;-76
2023/12/17 04:36:06;;;;;;;34.55;17.35;;;;;;;;;;2079214;28;20026;-76
2023/12/17 04:37:27;;;;;;;30.55;15.65;;;;;;;;;;2076458;28;20030;-75
2023/12/17 04:38:48;;;;;;;37.25;17.88;;;;;;;;;;2078247;28;20025;-76
2023/12/17 04:40:10;;;;;;;32.53;16.95;;;;;;;;;;2079117;28;20207;-76
2023/12/17 04:41:33;;;;;;;;;;;;;;;;;;2074794;28;20026;-76
2023/12/17 04:42:54;;;;;;;31.00;16.83;;;;;;;;;;2081726;28;19909;-75
2023/12/17 04:44:15;;;;;;;32.42;15.65;;;;;;;;;;2089083;28;20048;-77
2023/12/17 04:45:35;;;;;;;33.17;17.25;;;;;;;;;;2075464;28;20043;-76
2023/12/17 04:46:57;;;;;;;35.55;16.45;;;;;;;;;;2079111;28;20042;-76
2023/12/17 04:48:18;;;;;;;34.40;16.90;;;;;;;;;;2084440;28;20506;-77
2023/12/17 04:49:39;;;;;;;33.67;16.85;;;;;;;;;;2086443;28;20040;-76
2023/12/17 04:51:00;;;;;;;31.03;16.73;;;;;;;;;;2077560;28;20080;-75
2023/12/17 04:52:21;;;;;;;35.42;17.80;;;;;;;;;;2085937;28;20970;-76
2023/12/17 04:53:42;;;;;;;30.23;15.40;;;;;;;;;;2076118;28;20041;-76
2023/12/17 04:55:03;;;;;;;32.97;17.00;;;;;;;;;;2085064;28;20070;-75
2023/12/17 04:56:24;;;;;;;27.02;14.10;;;;;;;;;;2086020;28;20036;-75
2023/12/17 04:57:45;;;;;;;31.30;15.63;;;;;;;;;;2076920;28;20070;-75
2023/12/17 04:59:06;;;;;;;33.70;16.40;;;;;;;;;;2083242;28;20669;-76
2023/12/17 05:00:27;;;;;;;33.60;15.57;;;;;;;;;;2076277;28;20037;-76
2023/12/17 05:01:48;;;;;;;34.88;17.25;;;;;;;;;;2074612;28;20080;-76
2023/12/17 05:03:09;;;;;;;30.15;16.20;;;;;;;;;;2078140;28;20083;-76
2023/12/17 05:04:30;;;;;;;30.03;14.57;;;;;;;;;;2084682;28;20029;-75
2023/12/17 05:05:51;;;;;;;32.42;15.65;;;;;;;;;;2080213;28;20022;-75
2023/12/17 05:07:12;;;;;;;31.80;15.50;;;;;;;;;;2081002;28;20053;-76
2023/12/17 05:08:33;;;;;;;30.35;14.27;;;;;;;;;;2080510;28;20033;-76
2023/12/17 05:09:54;;;;;;;30.02;16.00;;;;;;;;;;2087803;28;20036;-76
2023/12/17 05:11:15;;;;;;;29.48;15.00;;;;;;;;;;2083166;28;20021;-75
2023/12/17 05:12:36;;;;;;;37.75;17.23;;;;;;;;;;2087127;28;20028;-75
2023/12/17 05:13:57;;;;;;;28.98;14.43;;;;;;;;;;2079908;28;20100;-76
2023/12/17 05:15:18;;;;;;;32.20;16.38;;;;;;;;;;2081589;28;20049;-75
2023/12/17 05:16:41;;;;;;;30.92;16.08;;;;;;;;;;2087449;28;20029;-75
2023/12/17 05:18:01;;;;;;;31.00;15.80;;;;;;;;;;2081119;28;20096;-75
2023/12/17 05:19:22;;;;;;;31.50;15.55;;;;;;;;;;2078528;28;20405;-76
2023/12/17 05:20:45;;;;;;;32.40;16.92;;;;;;;;;;2078662;28;20030;-75
2023/12/17 05:22:06;;;;;;;38.30;17.95;;;;;;;;;;2080767;28;20034;-76
2023/12/17 05:23:27;;;;;;;33.28;15.93;;;;;;;;;;2080313;28;20037;-75
2023/12/17 05:24:48;;;;;;;37.60;17.52;;;;;;;;;;2080782;28;20068;-75
2023/12/17 05:26:09;;;;;;;33.28;15.95;;;;;;;;;;2074826;28;20030;-75
2023/12/17 05:27:30;;;;;;;35.30;17.15;;;;;;;;;;2070724;28;20033;-76
2023/12/17 05:28:51;;;;;;;33.45;17.30;;;;;;;;;;2072694;28;20451;-75
2023/12/17 05:30:12;;;;;;;37.22;17.88;;;;;;;;;;2065328;28;20079;-75
2023/12/17 05:31:33;;;;;;;36.10;16.38;;;;;;;;;;2070160;28;20038;-76
2023/12/17 05:32:54;;;;;;;31.65;15.82;;;;;;;;;;2066475;28;20035;-76
2023/12/17 05:34:16;;;;;;;40.78;18.10;;;;;;;;;;2071582;28;20037;-75
2023/12/17 05:35:37;;;;;;;35.38;16.35;;;;;;;;;;2070002;28;20042;-75
2023/12/17 05:36:57;;;;;;;41.50;17.73;;;;;;;;;;2072032;28;20240;-75
2023/12/17 05:38:19;;;;;;;38.22;16.90;;;;;;;;;;2072012;28;20097;-75
2023/12/17 05:39:40;;;;;;;33.20;15.45;;;;;;;;;;2072026;28;20034;-75
2023/12/17 05:41:01;;;;;;;35.72;16.25;;;;;;;;;;2069525;28;20030;-76
2023/12/17 05:42:22;;;;;;;40.00;17.40;;;;;;;;;;2075666;28;20451;-76
2023/12/17 05:43:43;;;;;;;34.42;15.85;;;;;;;;;;2069260;28;20038;-75
2023/12/17 05:45:04;;;;;;;40.15;18.23;;;;;;;;;;2066696;28;20486;-75
2023/12/17 05:46:26;;;;;;;39.95;17.50;;;;;;;;;;2066442;28;20619;-74
2023/12/17 05:47:47;;;;;;;37.70;17.15;;;;;;;;;;2071843;28;20030;-74
2023/12/17 05:49:08;;;;;;;33.92;16.77;;;;;;;;;;2070130;28;20505;-75
2023/12/17 05:50:29;;;;;;;35.38;17.83;;;;;;;;;;2074921;28;20134;-75
2023/12/17 05:51:50;;;;;;;37.03;17.27;;;;;;;;;;2072653;28;20041;-75
2023/12/17 05:53:11;;;;;;;35.42;17.42;;;;;;;;;;2069884;28;20030;-75
2023/12/17 05:54:32;;;;;;;38.45;17.00;;;;;;;;;;2069217;28;20432;-75
2023/12/17 05:55:53;;;;;;;35.53;17.42;;;;;;;;;;2070443;28;20030;-75
2023/12/17 05:57:14;;;;;;;37.85;17.13;;;;;;;;;;2067303;28;20362;-75
2023/12/17 05:58:35;;;;;;;38.00;17.15;;;;;;;;;;2070629;28;20042;-75
2023/12/17 05:59:56;;;;;;;39.00;17.35;;;;;;;;;;2072131;28;20072;-75
2023/12/17 06:01:17;;;;;;;37.85;17.95;;;;;;;;;;2066234;28;20493;-75
2023/12/17 06:02:38;;;;;;;43.42;18.85;;;;;;;;;;2066761;28;20072;-75
2023/12/17 06:03:59;;;;;;;38.63;16.95;;;;;;;;;;2071484;28;20466;-77
2023/12/17 06:05:19;;;;;;;38.35;16.70;;;;;;;;;;2070007;28;20477;-75
2023/12/17 06:06:40;;;;;;;39.55;18.20;;;;;;;;;;2072396;28;20087;-76
2023/12/17 06:08:01;;;;;;;43.22;19.20;;;;;;;;;;2069276;28;20575;-76
2023/12/17 06:09:23;;;;;;;44.22;17.98;;;;;;;;;;2069953;28;20038;-76
2023/12/17 06:10:44;;;;;;;37.70;17.60;;;;;;;;;;2071296;28;20101;-76
2023/12/17 06:12:05;;;;;;;40.55;16.83;;;;;;;;;;2072247;28;20552;-76
2023/12/17 06:13:26;;;;;;;47.00;17.70;;;;;;;;;;2064874;28;20033;-75
2023/12/17 06:14:47;;;;;;;41.47;19.42;;;;;;;;;;2071071;28;20038;-76
2023/12/17 06:16:08;;;;;;;43.22;18.75;;;;;;;;;;2066972;28;20447;-76
2023/12/17 06:17:29;;;;;;;37.05;18.10;;;;;;;;;;2067562;28;20434;-76
2023/12/17 06:18:51;;;;;;;41.65;18.42;;;;;;;;;;2071088;28;20030;-76
2023/12/17 06:20:12;;;;;;;40.00;18.67;;;;;;;;;;2075309;28;20091;-75
2023/12/17 06:21:33;;;;;;;44.50;19.30;;;;;;;;;;2066861;28;20033;-75
2023/12/17 06:22:54;;;;;;;39.25;17.90;;;;;;;;;;2069767;28;20111;-76
2023/12/17 06:24:15;;;;;;;42.20;17.67;;;;;;;;;;2067037;28;20042;-76
2023/12/17 06:25:35;;;;;;;32.72;15.70;;;;;;;;;;2068371;28;20034;-76
2023/12/17 06:26:56;;;;;;;41.35;18.15;;;;;;;;;;2075084;28;20076;-76
2023/12/17 06:28:17;;;;;;;35.70;16.73;;;;;;;;;;2072639;28;20038;-75
2023/12/17 06:29:38;;;;;;;35.15;17.77;;;;;;;;;;2070162;28;20038;-76
2023/12/17 06:30:59;;;;;;;32.05;16.42;;;;;;;;;;2070557;28;20030;-77
2023/12/17 06:32:20;;;;;;;36.70;17.40;;;;;;;;;;2069590;28;20501;-75
2023/12/17 06:33:41;;;;;;;35.15;18.80;;;;;;;;;;2069375;28;20030;-75
2023/12/17 06:35:05;;;;;;;34.67;16.58;;;;;;;;;;2067478;28;20077;-75
2023/12/17 06:36:28;;;;;;;36.50;16.63;;;;;;;;;;2068506;28;20038;-75
2023/12/17 06:37:48;;;;;;;37.13;19.77;;;;;;;;;;2069309;28;21032;-77
2023/12/17 06:39:10;;;;;;;32.95;15.45;;;;;;;;;;2067909;28;20037;-75
2023/12/17 06:40:31;;;;;;;36.70;16.55;;;;;;;;;;2066706;28;20031;-75
2023/12/17 06:41:52;;;;;;;41.80;18.42;;;;;;;;;;2068076;28;20052;-77
2023/12/17 06:43:13;;;;;;;39.35;17.00;;;;;;;;;;2068768;28;20319;-75
2023/12/17 06:44:34;;;;;;;36.00;15.88;;;;;;;;;;2068477;28;20135;-76
2023/12/17 06:45:55;;;;;;;32.50;15.25;;;;;;;;;;2071858;28;20034;-75
2023/12/17 06:47:17;;;;;;;34.65;17.70;;;;;;;;;;2067891;28;20574;-76
2023/12/17 06:48:38;;;;;;;39.53;19.02;;;;;;;;;;2068088;28;20034;-75
2023/12/17 06:49:58;;;;;;;31.70;14.88;;;;;;;;;;2066849;28;20026;-75
2023/12/17 06:51:19;;;;;;;27.10;13.77;;;;;;;;;;2066519;28;20088;-75
2023/12/17 06:52:41;;;;;;;32.15;14.18;;;;;;;;;;2062718;28;20027;-75
2023/12/17 06:54:01;;;;;;;33.50;16.55;;;;;;;;;;2072124;28;20037;-77
2023/12/17 06:55:22;;;;;;;30.27;15.55;;;;;;;;;;2067392;28;20104;-76
2023/12/17 06:56:44;;;;;;;31.08;15.18;;;;;;;;;;2071115;28;20033;-76
2023/12/17 06:58:05;;;;;;;35.23;16.13;;;;;;;;;;2069283;28;20041;-77
2023/12/17 06:59:25;;;;;;;27.80;15.23;;;;;;;;;;2068391;28;20486;-75
2023/12/17 07:00:46;;;;;;;29.35;14.73;;;;;;;;;;2070030;28;20030;-76
2023/12/17 07:02:07;;;;;;;27.17;14.70;;;;;;;;;;2070217;28;20034;-76
2023/12/17 07:03:28;;;;;;;27.50;15.50;;;;;;;;;;2068708;28;20046;-77
2023/12/17 07:04:49;;;;;;;26.70;13.23;;;;;;;;;;2063734;28;20062;-75
2023/12/17 07:06:11;;;;;;;33.80;14.70;;;;;;;;;;2061352;28;20030;-75
2023/12/17 07:07:32;;;;;;;26.60;14.48;;;;;;;;;;2070341;28;20124;-76
2023/12/17 07:08:53;;;;;;;25.13;13.18;;;;;;;;;;2066324;28;20037;-76
2023/12/17 07:10:14;;;;;;;28.67;14.43;;;;;;;;;;2074451;28;20505;-76
2023/12/17 07:11:35;;;;;;;29.48;14.60;;;;;;;;;;2071141;28;20092;-76
2023/12/17 07:12:56;;;;;;;27.30;13.35;;;;;;;;;;2068059;28;20068;-76
2023/12/17 07:14:17;;;;;;;28.35;14.35;;;;;;;;;;2067927;28;20559;-76
2023/12/17 07:15:38;;;;;;;26.55;13.00;;;;;;;;;;2069468;28;20045;-76
2023/12/17 07:16:59;;;;;;;26.25;13.48;;;;;;;;;;2071038;28;20026;-77
2023/12/17 07:18:20;;;;;;;25.38;13.30;;;;;;;;;;2067213;28;20492;-74
2023/12/17 07:19:41;;;;;;;26.80;13.93;;;;;;;;;;2066965;28;20046;-74
2023/12/17 07:21:01;;;;;;;24.92;13.60;;;;;;;;;;2064333;28;20042;-75
2023/12/17 07:22:22;;;;;;;22.38;13.00;;;;;;;;;;2068019;28;20502;-75
2023/12/17 07:23:43;;;;;;;29.13;13.50;;;;;;;;;;2071670;28;20060;-74
2023/12/17 07:25:04;;;;;;;24.63;12.90;;;;;;;;;;2070539;28;20124;-75
2023/12/17 07:26:25;;;;;;;32.00;14.73;;;;;;;;;;2068213;28;20030;-74
2023/12/17 07:27:46;;;;;;;34.20;15.55;;;;;;;;;;2071445;28;20346;-75
2023/12/17 07:29:07;;;;;;;24.58;13.25;;;;;;;;;;2064058;28;20030;-75
2023/12/17 07:30:30;;;;;;;28.17;14.45;;;;;;;;;;2067395;28;20425;-75
2023/12/17 07:31:50;;;;;;;31.15;13.93;;;;;;;;;;2066105;28;20030;-74
2023/12/17 07:33:11;;;;;;;28.25;14.60;;;;;;;;;;2065469;28;20038;-75
2023/12/17 07:34:32;;;;;;;28.67;13.82;;;;;;;;;;2070825;28;20027;-76
2023/12/17 07:35:53;;;;;;;24.15;13.90;;;;;;;;;;2076137;28;20037;-75
2023/12/17 07:37:14;;;;;;;26.27;14.40;;;;;;;;;;2073198;28;20034;-75
2023/12/17 07:38:35;;;;;;;27.50;13.75;;;;;;;;;;2068908;28;20114;-76
2023/12/17 07:39:56;;;;;;;25.63;13.85;;;;;;;;;;2073142;28;20052;-76
2023/12/17 07:41:17;;;;;;;25.63;14.25;;;;;;;;;;2069897;28;20502;-76
2023/12/17 07:42:38;;;;;;;30.08;13.45;;;;;;;;;;2070804;28;21509;-76
2023/12/17 07:43:59;;;;;;;27.48;14.82;;;;;;;;;;2068343;28;20056;-76
2023/12/17 07:45:20;;;;;;;26.42;14.30;;;;;;;;;;2073323;28;20458;-76
2023/12/17 07:46:41;;;;;;;24.10;14.23;;;;;;;;;;2072985;28;20091;-75
2023/12/17 07:48:02;;;;;;;23.48;13.82;;;;;;;;;;2072116;28;20100;-76
2023/12/17 07:49:23;;;;;;;23.20;14.00;;;;;;;;;;2069666;28;20398;-76
2023/12/17 07:50:44;;;;;;;23.13;13.38;;;;;;;;;;2071609;28;20034;-75
2023/12/17 07:52:05;;;;;;;24.08;13.40;;;;;;;;;;2073010;28;20030;-76